createdAt,value
2018-05-12T00:01:49.709Z,2.00
2018-05-12T00:07:10.406Z,1.97
2018-05-12T00:09:38.024Z,1.90
2018-05-12T00:12:05.616Z,2.00
2018-05-12T00:14:33.210Z,2.20
2018-05-12T00:17:00.806Z,2.00
2018-05-12T00:19:28.374Z,2.20
2018-05-12T00:21:56.731Z,2.00
2018-05-12T00:24:29.395Z,2.23
2018-05-12T00:26:56.935Z,2.10
2018-05-12T00:29:24.527Z,2.10
2018-05-12T00:31:52.079Z,1.90
2018-05-12T00:34:24.718Z,1.87
2018-05-12T00:36:52.306Z,2.10
2018-05-12T00:39:19.856Z,2.40
2018-05-12T00:41:47.419Z,2.00
2018-05-12T00:44:19.936Z,2.20
2018-05-12T00:46:47.479Z,2.20
2018-05-12T00:49:15.069Z,2.00
2018-05-12T00:51:42.667Z,2.00
2018-05-12T00:54:10.243Z,2.20
2018-05-12T00:56:37.873Z,2.40
2018-05-12T00:59:05.417Z,2.30
2018-05-12T01:01:33.012Z,2.40
2018-05-12T01:04:00.604Z,2.77
2018-05-12T01:06:28.164Z,2.40
2018-05-12T01:08:55.724Z,2.43
2018-05-12T01:11:23.291Z,2.03
2018-05-12T01:13:50.871Z,2.10
2018-05-12T01:16:18.431Z,2.10
2018-05-12T01:18:46.022Z,1.93
2018-05-12T01:21:13.558Z,2.30
2018-05-12T01:23:41.138Z,1.90
2018-05-12T01:26:08.695Z,2.23
2018-05-12T01:28:36.291Z,2.40
2018-05-12T01:31:03.863Z,2.90
2018-05-12T01:33:31.441Z,2.70
2018-05-12T01:35:59.020Z,2.50
2018-05-12T01:38:26.630Z,2.50
2018-05-12T01:40:54.223Z,2.30
2018-05-12T01:43:21.797Z,2.37
2018-05-12T01:45:49.374Z,2.20
2018-05-12T01:48:16.971Z,2.33
2018-05-12T01:50:44.543Z,2.30
2018-05-12T01:53:12.114Z,2.23
2018-05-12T01:55:39.695Z,2.13
2018-05-12T01:58:07.310Z,2.30
2018-05-12T02:00:34.872Z,2.20
2018-05-12T02:03:02.495Z,2.40
2018-05-12T02:05:30.079Z,2.13
2018-05-12T02:07:57.710Z,2.20
2018-05-12T02:10:25.258Z,2.40
2018-05-12T02:12:52.829Z,2.00
2018-05-12T02:15:20.616Z,3.00
2018-05-12T02:17:48.208Z,2.20
2018-05-12T02:20:15.791Z,1.80
2018-05-12T02:22:43.380Z,2.30
2018-05-12T02:25:10.999Z,2.13
2018-05-12T02:27:38.616Z,2.10
2018-05-12T02:30:06.181Z,2.00
2018-05-12T02:32:33.775Z,2.00
2018-05-12T02:35:16.492Z,2.23
2018-05-12T02:37:44.055Z,2.27
2018-05-12T02:40:12.420Z,2.03
2018-05-12T02:42:40.784Z,1.80
2018-05-12T02:45:08.346Z,1.90
2018-05-12T02:47:35.908Z,1.93
2018-05-12T02:50:03.551Z,2.10
2018-05-12T02:52:31.152Z,1.90
2018-05-12T02:54:58.715Z,1.70
2018-05-12T02:57:26.313Z,1.90
2018-05-12T02:59:53.849Z,1.80
2018-05-12T03:02:21.423Z,2.57
2018-05-12T03:04:48.996Z,1.90
2018-05-12T03:07:16.566Z,1.90
2018-05-12T03:09:44.184Z,2.30
2018-05-12T03:12:11.815Z,1.90
2018-05-12T03:14:39.360Z,1.97
2018-05-12T03:17:06.927Z,2.00
2018-05-12T03:19:34.494Z,2.23
2018-05-12T03:22:02.068Z,2.13
2018-05-12T03:24:29.639Z,1.90
2018-05-12T03:26:57.261Z,2.07
2018-05-12T03:29:24.845Z,2.20
2018-05-12T03:31:52.397Z,2.30
2018-05-12T03:34:19.992Z,2.03
2018-05-12T03:36:47.607Z,2.00
2018-05-12T03:39:15.936Z,2.70
2018-05-12T03:41:43.565Z,2.60
2018-05-12T03:44:11.124Z,2.60
2018-05-12T03:46:38.705Z,2.33
2018-05-12T03:49:07.054Z,2.17
2018-05-12T03:51:34.645Z,2.07
2018-05-12T03:54:02.239Z,3.63
2018-05-12T03:56:29.810Z,2.80
2018-05-12T03:58:57.350Z,2.23
2018-05-12T04:01:24.898Z,2.10
2018-05-12T04:04:02.140Z,2.10
2018-05-12T04:06:41.545Z,2.50
2018-05-12T04:09:20.859Z,2.63
2018-05-12T04:12:00.142Z,2.53
2018-05-12T04:14:28.559Z,2.30
2018-05-12T04:16:56.122Z,2.40
2018-05-12T04:19:23.718Z,2.40
2018-05-12T04:21:51.313Z,2.60
2018-05-12T04:24:18.881Z,2.57
2018-05-12T04:26:46.439Z,2.27
2018-05-12T04:29:14.035Z,2.20
2018-05-12T04:31:41.620Z,2.60
2018-05-12T04:34:09.964Z,2.40
2018-05-12T04:36:37.588Z,2.40
2018-05-12T04:39:05.260Z,2.53
2018-05-12T04:41:32.836Z,2.80
2018-05-12T04:44:00.406Z,3.00
2018-05-12T04:46:27.954Z,2.50
2018-05-12T04:48:55.514Z,2.67
2018-05-12T04:51:23.100Z,2.47
2018-05-12T04:53:50.662Z,3.00
2018-05-12T04:56:19.036Z,2.70
2018-05-12T04:58:46.640Z,3.57
2018-05-12T05:01:14.179Z,2.80
2018-05-12T05:03:41.746Z,2.40
2018-05-12T05:06:09.361Z,2.73
2018-05-12T05:08:36.928Z,2.60
2018-05-12T05:11:04.467Z,2.50
2018-05-12T05:13:32.058Z,2.63
2018-05-12T05:15:59.620Z,3.03
2018-05-12T05:18:27.230Z,3.00
2018-05-12T05:20:54.819Z,3.00
2018-05-12T05:23:32.024Z,2.83
2018-05-12T05:25:59.612Z,2.87
2018-05-12T05:28:27.212Z,3.10
2018-05-12T05:30:54.751Z,3.30
2018-05-12T05:33:32.015Z,3.67
2018-05-12T05:35:59.626Z,3.10
2018-05-12T05:38:27.226Z,2.73
2018-05-12T05:40:54.789Z,2.40
2018-05-12T05:43:23.205Z,2.30
2018-05-12T05:45:50.791Z,3.20
2018-05-12T05:48:18.351Z,2.50
2018-05-12T05:50:45.965Z,2.40
2018-05-12T05:53:13.547Z,3.00
2018-05-12T05:55:41.124Z,2.97
2018-05-12T05:58:08.774Z,3.03
2018-05-12T06:00:36.466Z,2.90
2018-05-12T06:03:04.060Z,3.30
2018-05-12T06:05:31.663Z,3.13
2018-05-12T06:07:59.614Z,3.03
2018-05-12T06:10:27.187Z,3.27
2018-05-12T06:12:54.802Z,3.30
2018-05-12T06:15:22.450Z,3.80
2018-05-12T06:17:50.071Z,3.57
2018-05-12T06:20:17.657Z,3.30
2018-05-12T06:22:45.262Z,3.13
2018-05-12T06:25:12.897Z,3.13
2018-05-12T06:27:40.484Z,3.67
2018-05-12T06:30:08.072Z,3.60
2018-05-12T06:32:35.675Z,3.07
2018-05-12T06:35:03.386Z,2.83
2018-05-12T06:37:30.964Z,2.90
2018-05-12T06:39:58.560Z,3.20
2018-05-12T06:42:26.137Z,2.97
2018-05-12T06:44:53.774Z,3.20
2018-05-12T06:47:21.385Z,3.90
2018-05-12T06:49:48.981Z,2.90
2018-05-12T06:52:16.639Z,2.77
2018-05-12T06:54:45.157Z,2.97
2018-05-12T06:57:12.725Z,2.63
2018-05-12T06:59:40.271Z,2.53
2018-05-12T07:02:07.810Z,2.57
2018-05-12T07:04:35.621Z,2.90
2018-05-12T07:07:03.175Z,2.50
2018-05-12T07:09:30.744Z,2.20
2018-05-12T07:11:58.331Z,2.50
2018-05-12T07:14:26.102Z,2.90
2018-05-12T07:16:53.739Z,2.43
2018-05-12T07:19:21.381Z,2.10
2018-05-12T07:21:48.938Z,2.70
2018-05-12T07:24:21.766Z,1.93
2018-05-12T07:26:50.202Z,1.70
2018-05-12T07:29:17.747Z,1.77
2018-05-12T07:31:45.359Z,2.10
2018-05-12T07:34:13.707Z,2.17
2018-05-12T07:36:41.263Z,1.63
2018-05-12T07:39:09.047Z,1.90
2018-05-12T07:41:36.437Z,1.90
2018-05-12T07:44:04.051Z,1.80
2018-05-12T07:46:31.632Z,1.80
2018-05-12T07:49:00.037Z,1.53
2018-05-12T07:51:27.687Z,1.53
2018-05-12T07:53:55.305Z,1.60
2018-05-12T07:56:22.931Z,1.60
2018-05-12T07:58:50.533Z,1.70
2018-05-12T08:01:18.163Z,1.60
2018-05-12T08:03:45.724Z,1.97
2018-05-12T08:06:14.096Z,1.83
2018-05-12T08:08:41.745Z,1.50
2018-05-12T08:11:09.312Z,1.43
2018-05-12T08:13:36.891Z,1.53
2018-05-12T08:16:04.461Z,1.80
2018-05-12T08:18:32.057Z,1.53
2018-05-12T08:20:59.656Z,1.87
2018-05-12T08:23:27.268Z,1.57
2018-05-12T08:25:54.839Z,1.93
2018-05-12T08:28:22.470Z,1.50
2018-05-12T08:30:50.077Z,1.90
2018-05-12T08:33:17.640Z,1.90
2018-05-12T08:35:45.215Z,1.70
2018-05-12T08:38:12.927Z,1.90
2018-05-12T08:40:41.268Z,1.73
2018-05-12T08:43:08.879Z,1.60
2018-05-12T08:45:36.445Z,1.60
2018-05-12T08:48:04.005Z,1.50
2018-05-12T08:50:31.680Z,1.70
2018-05-12T08:52:59.968Z,1.70
2018-05-12T08:55:27.734Z,1.83
2018-05-12T08:57:55.359Z,2.10
2018-05-12T09:00:23.227Z,2.10
2018-05-12T09:02:50.847Z,1.80
2018-05-12T09:05:18.515Z,1.63
2018-05-12T09:07:46.096Z,2.20
2018-05-12T09:10:13.707Z,1.70
2018-05-12T09:12:41.279Z,1.50
2018-05-12T09:15:08.958Z,1.70
2018-05-12T09:17:36.540Z,1.90
2018-05-12T09:20:04.917Z,2.00
2018-05-12T09:22:32.518Z,1.70
2018-05-12T09:25:00.778Z,2.00
2018-05-12T09:27:28.524Z,1.93
2018-05-12T09:29:56.116Z,1.60
2018-05-12T09:32:23.698Z,1.70
2018-05-12T09:34:51.308Z,1.60
2018-05-12T09:37:18.895Z,1.97
2018-05-12T09:39:46.512Z,1.87
2018-05-12T09:42:14.123Z,1.77
2018-05-12T09:44:41.745Z,2.10
2018-05-12T09:47:09.285Z,2.00
2018-05-12T09:49:36.930Z,2.00
2018-05-12T09:52:04.514Z,2.23
2018-05-12T09:54:32.887Z,2.00
2018-05-12T09:57:00.520Z,2.20
2018-05-12T09:59:28.102Z,2.40
2018-05-12T10:01:56.496Z,2.63
2018-05-12T10:04:24.235Z,3.13
2018-05-12T10:06:51.784Z,2.30
2018-05-12T10:09:19.376Z,2.87
2018-05-12T10:11:46.966Z,2.90
2018-05-12T10:14:14.704Z,3.00
2018-05-12T10:16:42.294Z,2.93
2018-05-12T10:19:09.901Z,3.00
2018-05-12T10:21:38.218Z,3.10
2018-05-12T10:24:05.795Z,2.87
2018-05-12T10:26:33.395Z,2.60
2018-05-12T10:29:00.988Z,2.40
2018-05-12T10:31:28.551Z,2.73
2018-05-12T10:33:56.157Z,2.67
2018-05-12T10:36:23.776Z,2.87
2018-05-12T10:38:51.333Z,3.43
2018-05-12T10:41:18.935Z,3.20
2018-05-12T10:43:46.512Z,3.70
2018-05-12T10:46:14.164Z,3.40
2018-05-12T10:48:41.764Z,3.23
2018-05-12T10:51:09.310Z,3.00
2018-05-12T10:53:36.874Z,3.40
2018-05-12T10:56:04.484Z,2.83
2018-05-12T10:58:32.073Z,3.23
2018-05-12T11:00:59.674Z,3.80
2018-05-12T11:03:27.318Z,3.73
2018-05-12T11:05:54.904Z,3.30
2018-05-12T11:08:22.488Z,3.40
2018-05-12T11:10:50.098Z,3.57
2018-05-12T11:13:17.694Z,3.27
2018-05-12T11:15:45.342Z,3.30
2018-05-12T11:18:12.863Z,2.80
2018-05-12T11:20:40.431Z,3.17
2018-05-12T11:23:08.034Z,3.20
2018-05-12T11:25:35.599Z,3.20
2018-05-12T11:28:03.199Z,4.00
2018-05-12T11:30:30.811Z,3.60
2018-05-12T11:32:58.383Z,3.37
2018-05-12T11:35:25.995Z,3.47
2018-05-12T11:37:53.634Z,3.73
2018-05-12T11:40:21.254Z,3.33
2018-05-12T11:42:48.868Z,2.83
2018-05-12T11:45:16.451Z,3.07
2018-05-12T11:47:44.072Z,3.10
2018-05-12T11:50:12.513Z,3.60
2018-05-12T11:52:40.028Z,3.97
2018-05-12T11:55:07.608Z,4.40
2018-05-12T11:57:35.614Z,4.00
2018-05-12T12:00:03.212Z,3.40
2018-05-12T12:02:30.860Z,3.30
2018-05-12T12:04:58.454Z,3.43
2018-05-12T12:07:26.059Z,3.30
2018-05-12T12:09:53.655Z,2.60
2018-05-12T12:12:21.296Z,3.10
2018-05-12T12:14:48.897Z,2.90
2018-05-12T12:17:16.569Z,2.73
2018-05-12T12:19:44.192Z,3.50
2018-05-12T12:22:11.810Z,2.90
2018-05-12T12:24:39.400Z,4.17
2018-05-12T12:27:07.015Z,3.90
2018-05-12T12:29:34.577Z,4.20
2018-05-12T12:32:02.150Z,4.30
2018-05-12T12:34:29.765Z,3.73
2018-05-12T12:36:57.351Z,3.60
2018-05-12T12:39:24.956Z,3.90
2018-05-12T12:41:52.559Z,3.60
2018-05-12T12:44:20.142Z,3.37
2018-05-12T12:46:47.756Z,3.60
2018-05-12T12:49:15.424Z,4.00
2018-05-12T12:51:43.076Z,3.70
2018-05-12T12:54:10.637Z,4.53
2018-05-12T12:56:38.302Z,4.73
2018-05-12T12:59:05.843Z,4.23
2018-05-12T13:01:33.452Z,5.03
2018-05-12T13:04:01.074Z,4.40
2018-05-12T13:06:28.702Z,4.20
2018-05-12T13:08:56.299Z,4.23
2018-05-12T13:11:23.973Z,3.47
2018-05-12T13:13:51.605Z,4.50
2018-05-12T13:16:19.199Z,1.92
2018-05-12T13:18:46.843Z,1.80
2018-05-12T13:21:14.471Z,1.52
2018-05-12T13:23:47.016Z,1.70
2018-05-12T13:26:14.628Z,1.60
2018-05-12T13:28:42.230Z,1.60
2018-05-12T13:31:09.844Z,1.50
2018-05-12T13:33:37.461Z,1.40
2018-05-12T13:36:05.067Z,1.67
2018-05-12T13:38:32.668Z,1.47
2018-05-12T13:41:00.231Z,1.40
2018-05-12T13:43:27.853Z,1.30
2018-05-12T13:45:55.432Z,1.60
2018-05-12T13:48:22.973Z,1.53
2018-05-12T13:50:50.610Z,1.20
2018-05-12T13:53:19.011Z,1.30
2018-05-12T13:55:46.653Z,1.50
2018-05-12T13:58:14.206Z,1.53
2018-05-12T14:00:41.848Z,1.30
2018-05-12T14:03:09.446Z,1.30
2018-05-12T14:05:37.028Z,1.50
2018-05-12T14:08:04.651Z,1.90
2018-05-12T14:10:32.296Z,1.50
2018-05-12T14:12:59.896Z,1.47
2018-05-12T14:15:27.482Z,1.60
2018-05-12T14:17:55.081Z,1.50
2018-05-12T14:20:22.695Z,1.67
2018-05-12T14:22:50.312Z,1.53
2018-05-12T14:25:18.055Z,1.40
2018-05-12T14:27:45.757Z,1.40
2018-05-12T14:30:13.365Z,1.50
2018-05-12T14:32:41.018Z,1.50
2018-05-12T14:35:08.597Z,1.50
2018-05-12T14:37:36.178Z,1.50
2018-05-12T14:40:03.810Z,1.40
2018-05-12T14:42:31.378Z,1.57
2018-05-12T14:44:59.778Z,1.30
2018-05-12T14:47:27.388Z,1.40
2018-05-12T14:49:55.001Z,1.53
2018-05-12T14:52:22.611Z,1.50
2018-05-12T14:54:50.223Z,1.30
2018-05-12T14:57:17.814Z,1.53
2018-05-12T14:59:45.424Z,1.50
2018-05-12T15:02:13.860Z,1.43
2018-05-12T15:04:41.580Z,1.60
2018-05-12T15:07:09.206Z,1.50
2018-05-12T15:09:36.827Z,1.30
2018-05-12T15:12:04.425Z,1.40
2018-05-12T15:14:32.057Z,1.80
2018-05-12T15:16:59.711Z,1.30
2018-05-12T15:19:27.283Z,1.50
2018-05-12T15:21:54.850Z,1.57
2018-05-12T15:24:27.611Z,1.60
2018-05-12T15:26:55.154Z,1.70
2018-05-12T15:29:22.759Z,1.60
2018-05-12T15:31:50.390Z,1.60
2018-05-12T15:34:22.999Z,1.40
2018-05-12T15:36:50.625Z,1.97
2018-05-12T15:39:18.370Z,1.43
2018-05-12T15:41:45.928Z,3.03
2018-05-12T15:44:13.628Z,4.13
2018-05-12T15:46:41.143Z,2.80
2018-05-12T15:49:08.755Z,2.23
2018-05-12T15:51:36.392Z,2.00
2018-05-12T15:54:03.971Z,1.30
2018-05-12T15:56:31.574Z,1.60
2018-05-12T15:58:59.167Z,1.80
2018-05-12T16:01:26.784Z,1.90
2018-05-12T16:03:54.372Z,2.10
2018-05-12T16:06:22.009Z,2.13
2018-05-12T16:08:49.600Z,1.63
2018-05-12T16:11:17.153Z,1.43
2018-05-12T16:13:44.756Z,1.53
2018-05-12T16:16:12.364Z,1.70
2018-05-12T16:18:39.924Z,1.60
2018-05-12T16:21:07.531Z,1.67
2018-05-12T16:23:35.110Z,1.93
2018-05-12T16:26:02.674Z,1.40
2018-05-12T16:28:31.007Z,1.93
2018-05-12T16:30:58.572Z,1.80
2018-05-12T16:33:26.189Z,1.87
2018-05-12T16:35:53.831Z,1.90
2018-05-12T16:38:22.210Z,1.93
2018-05-12T16:40:49.783Z,1.70
2018-05-12T16:43:17.392Z,1.70
2018-05-12T16:45:44.968Z,2.00
2018-05-12T16:48:12.603Z,1.87
2018-05-12T16:50:40.260Z,2.13
2018-05-12T16:53:07.834Z,3.93
2018-05-12T16:55:35.398Z,3.60
2018-05-12T16:58:03.002Z,3.57
2018-05-12T17:00:30.625Z,2.00
2018-05-12T17:02:58.244Z,3.10
2018-05-12T17:05:25.835Z,2.63
2018-05-12T17:07:53.436Z,2.20
2018-05-12T17:10:21.795Z,2.30
2018-05-12T17:12:49.356Z,1.90
2018-05-12T17:15:16.983Z,2.13
2018-05-12T17:17:44.544Z,2.03
2018-05-12T17:20:12.102Z,1.67
2018-05-12T17:22:39.718Z,1.50
2018-05-12T17:25:07.307Z,1.60
2018-05-12T17:27:34.834Z,1.57
2018-05-12T17:30:02.430Z,1.43
2018-05-12T17:32:29.999Z,1.50
2018-05-12T17:34:57.606Z,1.60
2018-05-12T17:37:25.185Z,1.70
2018-05-12T17:39:52.748Z,1.60
2018-05-12T17:42:20.323Z,1.50
2018-05-12T17:44:47.910Z,1.60
2018-05-12T17:47:15.523Z,1.67
2018-05-12T17:49:43.094Z,1.80
2018-05-12T17:52:10.703Z,1.60
2018-05-12T17:54:38.283Z,2.10
2018-05-12T17:57:05.874Z,1.80
2018-05-12T17:59:33.439Z,3.20
2018-05-12T18:02:01.046Z,2.10
2018-05-12T18:04:28.618Z,2.10
2018-05-12T18:06:56.203Z,1.80
2018-05-12T18:09:23.746Z,1.70
2018-05-12T18:11:51.469Z,1.77
2018-05-12T18:14:19.066Z,1.87
2018-05-12T18:16:46.634Z,1.63
2018-05-12T18:19:14.200Z,1.90
2018-05-12T18:21:41.754Z,1.90
2018-05-12T18:24:09.329Z,1.60
2018-05-12T18:26:36.963Z,1.90
2018-05-12T18:29:04.532Z,2.10
2018-05-12T18:31:32.095Z,1.90
2018-05-12T18:33:59.684Z,1.50
2018-05-12T18:36:27.233Z,1.70
2018-05-12T18:38:54.848Z,1.80
2018-05-12T18:41:23.155Z,1.70
2018-05-12T18:43:50.709Z,1.50
2018-05-12T18:46:18.348Z,1.87
2018-05-12T18:48:45.982Z,1.50
2018-05-12T18:51:13.591Z,1.90
2018-05-12T18:53:41.132Z,1.90
2018-05-12T18:56:09.523Z,1.90
2018-05-12T18:58:37.078Z,1.83
2018-05-12T19:01:04.672Z,1.87
2018-05-12T19:03:32.288Z,1.70
2018-05-12T19:06:00.672Z,1.97
2018-05-12T19:08:28.303Z,1.70
2018-05-12T19:10:56.639Z,1.90
2018-05-12T19:13:24.987Z,2.00
2018-05-12T19:15:52.570Z,1.70
2018-05-12T19:18:20.202Z,1.57
2018-05-12T19:20:48.534Z,1.63
2018-05-12T19:23:16.098Z,1.60
2018-05-12T19:25:43.692Z,1.60
2018-05-12T19:28:11.266Z,1.90
2018-05-12T19:30:38.831Z,2.00
2018-05-12T19:33:06.428Z,1.67
2018-05-12T19:35:34.016Z,1.47
2018-05-12T19:38:01.578Z,1.73
2018-05-12T19:40:29.866Z,1.77
2018-05-12T19:42:57.447Z,1.43
2018-05-12T19:45:25.022Z,1.53
2018-05-12T19:47:52.640Z,1.73
2018-05-12T19:50:20.269Z,1.70
2018-05-12T19:52:47.801Z,1.70
2018-05-12T19:55:15.396Z,1.50
2018-05-12T19:57:42.990Z,1.60
2018-05-12T20:00:10.556Z,1.87
2018-05-12T20:02:38.155Z,1.93
2018-05-12T20:05:05.775Z,1.70
2018-05-12T20:07:33.385Z,2.03
2018-05-12T20:10:00.973Z,2.00
2018-05-12T20:12:28.591Z,1.90
2018-05-12T20:14:56.591Z,2.13
2018-05-12T20:17:24.156Z,1.90
2018-05-12T20:19:51.756Z,1.90
2018-05-12T20:22:19.384Z,1.83
2018-05-12T20:24:47.748Z,1.90
2018-05-12T20:27:15.335Z,2.20
2018-05-12T20:29:42.926Z,2.10
2018-05-12T20:32:10.548Z,1.80
2018-05-12T20:35:01.881Z,1.97
2018-05-12T20:37:29.552Z,1.70
2018-05-12T20:39:57.091Z,1.83
2018-05-12T20:42:24.716Z,1.90
2018-05-12T20:44:52.292Z,2.10
2018-05-12T20:47:20.636Z,1.63
2018-05-12T20:49:48.224Z,1.90
2018-05-12T20:52:15.799Z,1.87
2018-05-12T20:54:48.309Z,1.90
2018-05-12T20:57:15.866Z,1.87
2018-05-12T20:59:43.467Z,2.10
2018-05-12T21:02:11.064Z,1.77
2018-05-12T21:04:38.613Z,1.93
2018-05-12T21:07:06.227Z,2.00
2018-05-12T21:09:33.788Z,1.90
2018-05-12T21:12:01.401Z,2.00
2018-05-12T21:14:33.926Z,1.80
2018-05-12T21:17:01.512Z,1.67
2018-05-12T21:19:29.052Z,1.83
2018-05-12T21:21:56.693Z,1.77
2018-05-12T21:24:24.260Z,3.10
2018-05-12T21:26:51.860Z,1.93
2018-05-12T21:29:19.535Z,1.63
2018-05-12T21:31:47.023Z,2.03
2018-05-12T21:34:14.615Z,1.70
2018-05-12T21:36:42.222Z,1.70
2018-05-12T21:39:09.779Z,1.77
2018-05-12T21:41:37.336Z,1.80
2018-05-12T21:44:04.932Z,1.70
2018-05-12T21:46:32.511Z,1.83
2018-05-12T21:49:00.055Z,1.70
2018-05-12T21:51:27.655Z,2.00
2018-05-12T21:53:55.999Z,1.80
2018-05-12T21:56:23.563Z,1.90
2018-05-12T21:58:51.185Z,1.50
2018-05-12T22:01:18.738Z,1.90
2018-05-12T22:03:46.279Z,1.93
2018-05-12T22:06:13.839Z,1.60
2018-05-12T22:08:41.471Z,1.80
2018-05-12T22:11:09.032Z,1.60
2018-05-12T22:13:36.616Z,1.70
2018-05-12T22:16:04.201Z,2.07
2018-05-12T22:18:31.850Z,1.87
2018-05-12T22:20:59.416Z,1.97
2018-05-12T22:23:26.975Z,1.93
2018-05-12T22:25:54.510Z,1.83
2018-05-12T22:28:22.075Z,2.20
2018-05-12T22:30:49.672Z,1.83
2018-05-12T22:33:17.234Z,1.87
2018-05-12T22:35:44.836Z,1.90
2018-05-12T22:38:12.424Z,1.80
2018-05-12T22:40:39.987Z,1.80
2018-05-12T22:43:07.581Z,1.60
2018-05-12T22:45:35.215Z,1.87
2018-05-12T22:48:02.795Z,2.30
2018-05-12T22:50:30.415Z,2.20
2018-05-12T22:52:57.970Z,1.83
2018-05-12T22:55:25.563Z,1.93
2018-05-12T22:57:53.195Z,1.93
2018-05-12T23:00:20.798Z,1.80
2018-05-12T23:02:48.395Z,1.80
2018-05-12T23:05:16.702Z,1.73
2018-05-12T23:07:44.295Z,1.70
2018-05-12T23:10:11.889Z,1.90
2018-05-12T23:12:39.463Z,1.70
2018-05-12T23:15:07.055Z,2.50
2018-05-12T23:17:34.643Z,2.57
2018-05-12T23:20:02.221Z,2.60
2018-05-12T23:22:29.787Z,2.20
2018-05-12T23:24:58.203Z,2.77
2018-05-12T23:27:25.740Z,2.77
2018-05-12T23:29:53.300Z,2.53
2018-05-12T23:32:20.886Z,2.73
2018-05-12T23:34:48.484Z,2.53
2018-05-12T23:37:16.093Z,2.90
2018-05-12T23:39:43.684Z,2.47
2018-05-12T23:42:11.275Z,2.30
2018-05-12T23:44:38.860Z,2.47
2018-05-12T23:47:06.440Z,2.60
2018-05-12T23:49:34.126Z,2.43
2018-05-12T23:52:01.696Z,2.20
2018-05-12T23:54:29.304Z,2.10
2018-05-12T23:56:56.935Z,2.23
2018-05-12T23:59:24.438Z,1.90
